This is the latest recevied weather packets stored in our database for station/object WX7FGZ-5. If no packets are shown the sender has not sent any weather packets the latest 10 day(s).
| Time | Temp. | Humidity | Pressure | Rain* | Wind** | Luminosity | Snow |
|---|---|---|---|---|---|---|---|
| 1777642032 | -2.22° C | 57% | 1020.8 hPa | 0 mm | - | 102 W/m² | - |
| 1777641418 | -0.56° C | 52% | 1020.5 hPa | 0 mm | - | 25 W/m² | - |
| 1777641132 | -0.56° C | 52% | 1020.5 hPa | 0 mm | - | 25 W/m² | - |
| 1777640834 | -0.56° C | 53% | 1020.5 hPa | 0 mm | - | 23 W/m² | - |
| 1777639967 | -1.67° C | 55% | 1020.2 hPa | 0 mm | - | 11 W/m² | - |
| 1777639633 | -1.67° C | 55% | 1020.2 hPa | 0 mm | - | 11 W/m² | - |
| 1777639586 | -1.67° C | 55% | 1020 hPa | 0 mm | - | 5 W/m² | - |
| 1777639333 | -1.67° C | 55% | 1020 hPa | 0 mm | - | 5 W/m² | - |
| 1777639323 | -1.11° C | 55% | 1020.2 hPa | 0 mm | - | 0 W/m² | - |
| 1777639033 | -1.11° C | 55% | 1020.2 hPa | 0 mm | - | 0 W/m² | - |
| 1777637533 | -1.67° C | 55% | 1019.9 hPa | 0 mm | - | 0 W/m² | - |
| 1777637525 | -1.67° C | 57% | 1019.8 hPa | 0 mm | - | 0 W/m² | - |
| 1777637232 | -1.67° C | 57% | 1019.8 hPa | 0 mm | - | 0 W/m² | - |
| 1777636933 | -1.67° C | 57% | 1019.9 hPa | 0 mm | - | 0 W/m² | - |
| 1777636127 | -2.22° C | 57% | 1019.8 hPa | 0 mm | - | 0 W/m² | - |
| 1777635882 | -2.22° C | 57% | 1019.8 hPa | 0 mm | - | 0 W/m² | - |
| 1777635568 | -2.22° C | 57% | 1019.7 hPa | 0 mm | - | 0 W/m² | - |
| 1777635283 | -2.22° C | 57% | 1019.7 hPa | 0 mm | - | 0 W/m² | - |
| 1777634983 | -1.67° C | 55% | 1019.7 hPa | 0 mm | - | 0 W/m² | - |
| 1777634699 | -0.56° C | 53% | 1019.7 hPa | 0 mm | - | 0 W/m² | - |
| 1777634383 | -0.56° C | 53% | 1019.7 hPa | 0 mm | - | 0 W/m² | - |
| 1777634166 | 0° C | 50% | 1019.7 hPa | 0 mm | - | 0 W/m² | - |
| 1777634082 | -0.56° C | 51% | 1019.7 hPa | 0 mm | - | 0 W/m² | - |
| 1777633782 | 0° C | 50% | 1019.7 hPa | 0 mm | - | 0 W/m² | - |
| 1777633483 | 0° C | 50% | 1019.7 hPa | 0 mm | - | 0 W/m² | - |
* Rain latest hour (hover to see other rain measurements)
** Current wind speed in m/s (hover to see current wind gust speed)